Wetterstation Vordersexau
Wetterdaten: Woche 26.10.15 - 01.11.15 (KW44)
Datum Zeit Temp. A. Feuchte A. Luftdruck Regen Wind Richtung Taupunkt Windchill Windben
26.10.2015 00:00 7,9 C 86 % 1019,4 hPa 0,0 l/m 0,0 km/h O-NO 5,7 C 7,9 C 0,0 km/h
26.10.2015 01:00 7,1 C 86 % 1019,0 hPa 0,0 l/m 0,0 km/h N-NO 4,9 C 7,1 C 0,0 km/h
26.10.2015 02:00 6,8 C 86 % 1018,7 hPa 0,0 l/m 0,0 km/h NO 4,6 C 6,8 C 0,0 km/h
26.10.2015 03:00 6,7 C 86 % 1018,4 hPa 0,0 l/m 0,0 km/h NO 4,5 C 6,7 C 0,0 km/h
26.10.2015 04:00 6,5 C 86 % 1018,2 hPa 0,0 l/m 0,0 km/h NO 4,3 C 6,5 C 0,0 km/h
26.10.2015 05:00 6,3 C 86 % 1017,7 hPa 0,0 l/m 0,0 km/h NO 4,1 C 6,3 C 0,0 km/h
26.10.2015 06:00 5,9 C 86 % 1017,8 hPa 0,0 l/m 0,0 km/h NO 3,7 C 5,9 C 0,0 km/h
26.10.2015 07:00 5,8 C 86 % 1017,9 hPa 0,0 l/m 0,0 km/h NO 3,6 C 5,8 C 0,0 km/h
26.10.2015 08:00 6,6 C 85 % 1017,9 hPa 0,0 l/m 0,0 km/h NO 4,3 C 6,6 C 0,0 km/h
26.10.2015 09:00 8,9 C 85 % 1017,8 hPa 0,0 l/m 0,0 km/h W 6,5 C 8,9 C 0,0 km/h
26.10.2015 10:00 10,1 C 86 % 1017,7 hPa 0,0 l/m 0,0 km/h W 7,9 C 10,1 C 0,0 km/h
26.10.2015 11:00 13,0 C 84 % 1017,0 hPa 0,0 l/m 0,0 km/h W 10,4 C 13,0 C 0,0 km/h
26.10.2015 12:00 17,0 C 71 % 1016,5 hPa 0,0 l/m 0,0 km/h NW 11,7 C 17,0 C 0,0 km/h
26.10.2015 13:00 17,3 C 66 % 1016,0 hPa 0,0 l/m 0,0 km/h W-NW 10,9 C 17,3 C 0,0 km/h
26.10.2015 14:00 17,9 C 64 % 1015,8 hPa 0,0 l/m 0,0 km/h W 11,0 C 17,9 C 0,0 km/h
26.10.2015 15:00 17,9 C 61 % 1015,5 hPa 0,0 l/m 0,0 km/h W-NW 10,3 C 17,9 C 0,0 km/h
26.10.2015 16:00 13,2 C 72 % 1015,4 hPa 0,0 l/m 0,0 km/h W 8,3 C 13,2 C 0,0 km/h
26.10.2015 17:00 8,7 C 84 % 1015,5 hPa 0,0 l/m 0,0 km/h W 6,2 C 8,7 C 0,0 km/h
26.10.2015 18:00 8,2 C 86 % 1015,7 hPa 0,0 l/m 0,0 km/h W-NW 6,0 C 8,2 C 0,0 km/h
26.10.2015 19:00 8,1 C 86 % 1015,6 hPa 0,0 l/m 0,0 km/h W-SW 5,9 C 8,1 C 0,0 km/h
26.10.2015 20:00 7,9 C 86 % 1015,6 hPa 0,0 l/m 0,0 km/h W-SW 5,7 C 7,9 C 0,0 km/h
26.10.2015 21:00 7,6 C 86 % 1015,9 hPa 0,0 l/m 0,0 km/h W 5,4 C 7,6 C 0,0 km/h
26.10.2015 22:00 6,9 C 86 % 1015,6 hPa 0,0 l/m 0,0 km/h N 4,7 C 6,9 C 0,0 km/h
26.10.2015 23:00 6,6 C 86 % 1015,5 hPa 0,0 l/m 0,0 km/h N 4,4 C 6,6 C 0,0 km/h
27.10.2015 00:00 5,9 C 86 % 1015,5 hPa 0,0 l/m 0,0 km/h N 3,7 C 5,9 C 0,0 km/h
27.10.2015 01:00 5,8 C 86 % 1015,5 hPa 0,0 l/m 0,0 km/h N 3,6 C 5,8 C 0,0 km/h
27.10.2015 02:00 5,5 C 86 % 1015,2 hPa 0,0 l/m 0,0 km/h N 3,3 C 5,5 C 0,0 km/h
27.10.2015 03:00 5,5 C 86 % 1015,1 hPa 0,0 l/m 0,0 km/h N 3,3 C 5,5 C 0,0 km/h
27.10.2015 04:00 5,1 C 86 % 1014,7 hPa 0,0 l/m 0,0 km/h N 3,0 C 5,1 C 0,0 km/h
27.10.2015 05:00 5,0 C 86 % 1014,9 hPa 0,0 l/m 0,0 km/h N-NO 2,9 C 5,0 C 0,0 km/h
27.10.2015 06:00 5,3 C 85 % 1015,4 hPa 0,0 l/m 0,0 km/h N-NO 3,0 C 5,3 C 0,0 km/h
27.10.2015 07:00 5,6 C 84 % 1015,7 hPa 0,0 l/m 0,0 km/h SO 3,1 C 5,6 C 0,0 km/h
27.10.2015 08:00 6,5 C 84 % 1015,8 hPa 0,0 l/m 0,0 km/h O-NO 4,0 C 6,5 C 0,0 km/h
27.10.2015 09:00 7,9 C 84 % 1015,2 hPa 0,0 l/m 0,0 km/h W 5,4 C 7,9 C 0,0 km/h
27.10.2015 10:00 8,3 C 87 % 1015,8 hPa 0,0 l/m 0,0 km/h S-SW 6,3 C 8,3 C 0,0 km/h
27.10.2015 11:00 8,4 C 86 % 1015,5 hPa 0,0 l/m 0,0 km/h S-SW 6,2 C 8,4 C 0,0 km/h
27.10.2015 12:00 10,1 C 87 % 1014,6 hPa 0,0 l/m 0,0 km/h W-NW 8,0 C 10,1 C 0,0 km/h
27.10.2015 13:00 10,1 C 86 % 1014,1 hPa 0,0 l/m 0,0 km/h W-SW 7,9 C 10,1 C 0,0 km/h
27.10.2015 14:00 9,9 C 87 % 1013,9 hPa 0,0 l/m 0,0 km/h O-NO 7,8 C 9,9 C 0,0 km/h
27.10.2015 15:00 9,8 C 87 % 1013,9 hPa 0,0 l/m 0,0 km/h NO 7,7 C 9,8 C 0,0 km/h
27.10.2015 16:00 9,0 C 87 % 1013,4 hPa 0,0 l/m 0,0 km/h W 7,0 C 9,0 C 0,0 km/h
27.10.2015 17:00 8,5 C 86 % 1013,6 hPa 0,0 l/m 0,0 km/h SO 6,3 C 8,5 C 0,0 km/h
27.10.2015 18:00 8,1 C 86 % 1013,5 hPa 0,0 l/m 0,0 km/h NO 5,9 C 8,1 C 0,0 km/h
27.10.2015 19:00 7,9 C 86 % 1012,9 hPa 0,0 l/m 0,0 km/h NW 5,7 C 7,9 C 0,0 km/h
27.10.2015 20:00 7,9 C 84 % 1013,1 hPa 0,0 l/m 0,0 km/h NW 5,4 C 7,9 C 0,0 km/h
27.10.2015 21:00 7,8 C 84 % 1012,8 hPa 0,0 l/m 0,0 km/h W-NW 5,3 C 7,8 C 0,0 km/h
27.10.2015 22:00 7,7 C 83 % 1012,7 hPa 0,0 l/m 0,0 km/h SO 5,0 C 7,7 C 0,0 km/h
27.10.2015 23:00 7,6 C 83 % 1012,3 hPa 0,0 l/m 0,0 km/h NO 4,9 C 7,6 C 0,0 km/h
28.10.2015 00:00 7,4 C 83 % 1011,8 hPa 0,4 l/m 0,0 km/h NO 4,7 C 7,4 C 0,0 km/h
28.10.2015 01:00 7,4 C 83 % 1011,9 hPa 0,0 l/m 0,0 km/h SO 4,7 C 7,4 C 0,0 km/h
28.10.2015 02:00 7,1 C 83 % 1011,3 hPa 0,0 l/m 0,0 km/h SO 4,4 C 7,1 C 0,0 km/h
28.10.2015 03:00 6,8 C 83 % 1011,0 hPa 0,0 l/m 0,0 km/h SO 4,1 C 6,8 C 0,0 km/h
28.10.2015 04:00 6,7 C 83 % 1010,9 hPa 0,0 l/m 0,0 km/h SO 4,0 C 6,7 C 0,0 km/h
28.10.2015 05:00 6,9 C 83 % 1009,8 hPa 0,0 l/m 0,0 km/h SO 4,2 C 6,9 C 0,0 km/h
28.10.2015 06:00 6,8 C 82 % 1010,0 hPa 0,0 l/m 0,0 km/h O-NO 3,9 C 6,8 C 0,0 km/h
28.10.2015 07:00 6,8 C 82 % 1009,2 hPa 0,0 l/m 0,0 km/h W-SW 3,9 C 6,8 C 0,0 km/h
28.10.2015 08:00 7,3 C 82 % 1009,9 hPa 0,0 l/m 0,0 km/h S-SO 4,4 C 7,3 C 0,0 km/h
28.10.2015 09:00 8,9 C 84 % 1009,7 hPa 0,0 l/m 0,0 km/h S 6,3 C 8,9 C 0,0 km/h
28.10.2015 10:00 10,1 C 86 % 1009,5 hPa 0,0 l/m 0,0 km/h N 7,9 C 10,1 C 0,0 km/h
28.10.2015 11:00 16,4 C 77 % 1009,5 hPa 0,0 l/m 0,0 km/h W 12,4 C 16,4 C 0,0 km/h
28.10.2015 12:00 17,1 C 70 % 1008,7 hPa 0,0 l/m 0,0 km/h W 11,6 C 17,1 C 0,0 km/h
28.10.2015 13:00 17,6 C 66 % 1008,5 hPa 0,0 l/m 0,0 km/h W-NW 11,2 C 17,6 C 0,0 km/h
28.10.2015 14:00 15,6 C 69 % 1009,2 hPa 0,0 l/m 0,0 km/h N-NW 9,9 C 15,6 C 0,0 km/h
28.10.2015 15:00 14,6 C 74 % 1008,6 hPa 0,0 l/m 0,0 km/h W-NW 10,0 C 14,6 C 0,0 km/h
28.10.2015 16:00 13,6 C 76 % 1008,6 hPa 0,0 l/m 0,0 km/h W-NW 9,4 C 13,6 C 0,0 km/h
28.10.2015 17:00 10,8 C 84 % 1009,6 hPa 0,0 l/m 0,0 km/h W-NW 8,2 C 10,8 C 0,0 km/h
28.10.2015 18:00 10,3 C 85 % 1010,0 hPa 0,0 l/m 0,0 km/h W-NW 7,9 C 10,3 C 0,0 km/h
28.10.2015 19:00 10,1 C 86 % 1010,4 hPa 0,0 l/m 0,0 km/h W-NW 7,9 C 10,1 C 0,0 km/h
28.10.2015 20:00 9,9 C 86 % 1010,6 hPa 0,0 l/m 0,0 km/h W-NW 7,7 C 9,9 C 0,0 km/h
28.10.2015 21:00 9,9 C 86 % 1011,4 hPa 0,0 l/m 0,0 km/h N-NO 7,7 C 9,9 C 0,0 km/h
28.10.2015 22:00 9,9 C 87 % 1012,0 hPa 1,2 l/m 0,0 km/h S-SO 7,8 C 9,9 C 0,0 km/h
28.10.2015 23:00 10,1 C 87 % 1012,3 hPa 1,7 l/m 0,0 km/h W-SW 8,0 C 10,1 C 0,0 km/h
29.10.2015 00:00 10,3 C 86 % 1012,5 hPa 0,8 l/m 0,0 km/h W-SW 8,1 C 10,3 C 0,0 km/h
29.10.2015 01:00 10,3 C 85 % 1012,9 hPa 2,1 l/m 0,0 km/h SW 7,9 C 10,3 C 0,0 km/h
29.10.2015 02:00 10,2 C 84 % 1013,2 hPa 2,5 l/m 0,0 km/h SW 7,6 C 10,2 C 0,0 km/h
29.10.2015 03:00 10,3 C 84 % 1013,3 hPa 0,0 l/m 0,0 km/h NW 7,7 C 10,3 C 0,0 km/h
29.10.2015 04:00 10,3 C 84 % 1013,8 hPa 0,0 l/m 0,0 km/h W-SW 7,7 C 10,3 C 0,0 km/h
29.10.2015 05:00 9,9 C 84 % 1014,4 hPa 0,4 l/m 0,0 km/h W-SW 7,3 C 9,9 C 0,0 km/h
29.10.2015 06:00 9,9 C 84 % 1014,8 hPa 0,0 l/m 0,0 km/h W-SW 7,3 C 9,9 C 0,0 km/h
29.10.2015 07:00 9,9 C 84 % 1015,5 hPa 0,0 l/m 0,0 km/h W-SW 7,3 C 9,9 C 0,0 km/h
29.10.2015 08:00 9,9 C 84 % 1016,2 hPa 0,0 l/m 0,0 km/h W-SW 7,3 C 9,9 C 0,0 km/h
29.10.2015 09:00 9,9 C 84 % 1016,7 hPa 0,0 l/m 0,0 km/h W-SW 7,3 C 9,9 C 0,0 km/h
29.10.2015 10:00 9,9 C 84 % 1017,0 hPa 0,0 l/m 0,0 km/h SW 7,3 C 9,9 C 0,0 km/h
29.10.2015 11:00 14,2 C 84 % 1017,4 hPa 0,0 l/m 0,0 km/h S 11,5 C 14,2 C 0,0 km/h
29.10.2015 12:00 19,2 C 71 % 1017,5 hPa 0,0 l/m 0,0 km/h O-SO 13,8 C 19,2 C 0,0 km/h
29.10.2015 13:00 21,3 C 60 % 1017,4 hPa 0,0 l/m 0,0 km/h NO 13,2 C 21,3 C 0,0 km/h
29.10.2015 14:00 17,6 C 63 % 1017,6 hPa 0,0 l/m 0,0 km/h N-NO 10,5 C 17,6 C 0,0 km/h
29.10.2015 15:00 15,0 C 72 % 1018,0 hPa 0,0 l/m 0,0 km/h O-SO 10,0 C 15,0 C 0,0 km/h
29.10.2015 16:00 14,1 C 79 % 1018,3 hPa 0,0 l/m 0,0 km/h O-SO 10,5 C 14,1 C 0,0 km/h
29.10.2015 17:00 12,6 C 82 % 1018,7 hPa 0,0 l/m 0,0 km/h SO 9,6 C 12,6 C 0,0 km/h
29.10.2015 18:00 10,9 C 84 % 1019,2 hPa 0,0 l/m 0,0 km/h O 8,3 C 10,9 C 0,0 km/h
29.10.2015 19:00 8,6 C 86 % 1019,1 hPa 0,0 l/m 0,0 km/h O-NO 6,4 C 8,6 C 0,0 km/h
29.10.2015 20:00 7,9 C 87 % 1019,6 hPa 0,0 l/m 0,0 km/h N-NO 5,9 C 7,9 C 0,0 km/h
29.10.2015 21:00 7,6 C 88 % 1019,5 hPa 0,0 l/m 0,0 km/h N-NO 5,7 C 7,6 C 0,0 km/h
29.10.2015 22:00 6,9 C 87 % 1020,2 hPa 0,0 l/m 0,0 km/h O-SO 4,9 C 6,9 C 0,0 km/h
29.10.2015 23:00 6,4 C 87 % 1020,1 hPa 0,0 l/m 0,0 km/h O-SO 4,4 C 6,4 C 0,0 km/h
30.10.2015 00:00 5,5 C 87 % 1020,5 hPa 0,0 l/m 0,0 km/h NO 3,5 C 5,5 C 0,0 km/h
30.10.2015 01:00 5,4 C 87 % 1021,3 hPa 0,0 l/m 0,0 km/h O-NO 3,4 C 5,4 C 0,0 km/h
30.10.2015 02:00 5,6 C 86 % 1021,3 hPa 0,0 l/m 0,0 km/h O-NO 3,4 C 5,6 C 0,0 km/h
30.10.2015 03:00 5,3 C 86 % 1020,5 hPa 0,0 l/m 0,0 km/h NO 3,2 C 5,3 C 0,0 km/h
30.10.2015 04:00 4,9 C 86 % 1020,8 hPa 0,0 l/m 0,0 km/h SO 2,8 C 4,9 C 0,0 km/h
30.10.2015 05:00 5,3 C 86 % 1020,9 hPa 0,0 l/m 0,0 km/h SO 3,2 C 5,3 C 0,0 km/h
30.10.2015 06:00 5,8 C 85 % 1021,0 hPa 0,0 l/m 0,0 km/h SO 3,5 C 5,8 C 0,0 km/h
30.10.2015 07:00 5,6 C 85 % 1021,5 hPa 0,0 l/m 0,0 km/h N-NO 3,3 C 5,6 C 0,0 km/h
30.10.2015 08:00 6,1 C 84 % 1022,1 hPa 0,0 l/m 0,0 km/h O 3,6 C 6,1 C 0,0 km/h
30.10.2015 09:00 7,2 C 83 % 1022,2 hPa 0,0 l/m 0,0 km/h N 4,5 C 7,2 C 0,0 km/h
30.10.2015 10:00 8,8 C 84 % 1022,2 hPa 0,0 l/m 0,0 km/h W 6,2 C 8,8 C 0,0 km/h
30.10.2015 11:00 10,4 C 88 % 1022,4 hPa 0,0 l/m 0,0 km/h W 8,5 C 10,4 C 0,0 km/h
30.10.2015 12:00 11,5 C 87 % 1022,2 hPa 0,0 l/m 0,0 km/h W 9,4 C 11,5 C 0,0 km/h
30.10.2015 13:00 15,9 C 76 % 1021,9 hPa 0,0 l/m 0,0 km/h S 11,7 C 15,9 C 0,0 km/h
30.10.2015 14:00 18,1 C 70 % 1022,1 hPa 0,0 l/m 0,0 km/h N 12,5 C 18,1 C 0,0 km/h
30.10.2015 15:00 18,4 C 65 % 1022,1 hPa 0,0 l/m 0,0 km/h N 11,7 C 18,4 C 0,0 km/h
30.10.2015 16:00 13,8 C 76 % 1022,1 hPa 0,0 l/m 0,0 km/h O-NO 9,6 C 13,8 C 0,0 km/h
30.10.2015 17:00 9,2 C 83 % 1022,2 hPa 0,0 l/m 0,0 km/h O-NO 6,5 C 9,2 C 0,0 km/h
30.10.2015 18:00 7,8 C 86 % 1022,6 hPa 0,0 l/m 0,0 km/h O-NO 5,6 C 7,8 C 0,0 km/h
30.10.2015 19:00 7,1 C 87 % 1022,7 hPa 0,0 l/m 0,0 km/h O 5,1 C 7,1 C 0,0 km/h
30.10.2015 20:00 6,5 C 88 % 1023,0 hPa 0,0 l/m 0,0 km/h O 4,7 C 6,5 C 0,0 km/h
30.10.2015 21:00 5,9 C 88 % 1022,9 hPa 0,0 l/m 0,0 km/h O-NO 4,1 C 5,9 C 0,0 km/h
30.10.2015 22:00 5,4 C 88 % 1022,9 hPa 0,0 l/m 0,0 km/h NO 3,6 C 5,4 C 0,0 km/h
30.10.2015 23:00 5,2 C 88 % 1022,7 hPa 0,0 l/m 0,0 km/h NO 3,4 C 5,2 C 0,0 km/h
31.10.2015 00:00 5,4 C 87 % 1022,5 hPa 0,0 l/m 0,0 km/h NO 3,4 C 5,4 C 0,0 km/h
31.10.2015 01:00 4,5 C 87 % 1022,5 hPa 0,0 l/m 0,0 km/h NO 2,5 C 4,5 C 0,0 km/h
31.10.2015 02:00 4,2 C 87 % 1022,5 hPa 0,0 l/m 0,0 km/h NO 2,2 C 4,2 C 0,0 km/h
31.10.2015 03:00 4,2 C 87 % 1022,3 hPa 0,0 l/m 0,0 km/h NO 2,2 C 4,2 C 0,0 km/h
31.10.2015 04:00 4,3 C 87 % 1022,6 hPa 0,0 l/m 0,0 km/h O-NO 2,3 C 4,3 C 0,0 km/h
31.10.2015 05:00 3,1 C 87 % 1022,9 hPa 0,0 l/m 0,0 km/h O-NO 1,2 C 3,1 C 0,0 km/h
31.10.2015 06:00 2,7 C 87 % 1023,0 hPa 0,0 l/m 0,0 km/h O-NO 0,8 C 2,7 C 0,0 km/h
31.10.2015 07:00 2,3 C 87 % 1023,5 hPa 0,4 l/m 0,0 km/h O-SO 0,4 C 2,3 C 0,0 km/h
31.10.2015 08:00 5,1 C 85 % 1024,1 hPa 0,0 l/m 0,0 km/h SW 2,8 C 5,1 C 0,0 km/h
31.10.2015 09:00 8,7 C 79 % 1024,2 hPa 0,0 l/m 0,0 km/h N-NO 5,3 C 8,7 C 0,0 km/h
31.10.2015 10:00 12,9 C 82 % 1024,5 hPa 0,0 l/m 0,0 km/h W 9,9 C 12,9 C 0,0 km/h
31.10.2015 11:00 16,2 C 71 % 1024,4 hPa 0,0 l/m 0,0 km/h NW 10,9 C 16,2 C 0,0 km/h
31.10.2015 12:00 17,0 C 66 % 1024,0 hPa 0,0 l/m 0,0 km/h W 10,6 C 17,0 C 0,0 km/h
31.10.2015 13:00 18,9 C 61 % 1023,7 hPa 0,0 l/m 0,0 km/h W 11,2 C 18,9 C 0,0 km/h
31.10.2015 14:00 19,9 C 58 % 1023,5 hPa 0,0 l/m 0,0 km/h W-NW 11,4 C 19,9 C 0,0 km/h
31.10.2015 15:00 19,6 C 57 % 1023,6 hPa 0,0 l/m 0,0 km/h W-NW 10,8 C 19,6 C 0,0 km/h
31.10.2015 16:00 15,4 C 65 % 1024,0 hPa 0,0 l/m 0,0 km/h W-NW 8,9 C 15,4 C 0,0 km/h
31.10.2015 17:00 8,5 C 79 % 1024,4 hPa 0,0 l/m 0,0 km/h W-NW 5,1 C 8,5 C 0,0 km/h
31.10.2015 18:00 6,6 C 85 % 1025,0 hPa 0,0 l/m 0,0 km/h W-NW 4,3 C 6,6 C 0,0 km/h
31.10.2015 19:00 5,5 C 86 % 1025,4 hPa 0,0 l/m 0,0 km/h W-NW 3,3 C 5,5 C 0,0 km/h
31.10.2015 20:00 4,9 C 87 % 1025,7 hPa 0,0 l/m 0,0 km/h W-NW 2,9 C 4,9 C 0,0 km/h
31.10.2015 21:00 3,9 C 88 % 1026,3 hPa 0,0 l/m 0,0 km/h NW 2,1 C 3,9 C 0,0 km/h
31.10.2015 22:00 4,0 C 88 % 1026,6 hPa 0,0 l/m 0,0 km/h NW 2,2 C 4,0 C 0,0 km/h
31.10.2015 23:00 3,3 C 88 % 1026,8 hPa 0,0 l/m 0,0 km/h NW 1,5 C 3,3 C 0,0 km/h
01.11.2015 00:00 2,9 C 88 % 1026,8 hPa 0,0 l/m 0,0 km/h NW 1,1 C 2,9 C 0,0 km/h
01.11.2015 01:00 2,7 C 88 % 1026,8 hPa 0,0 l/m 0,0 km/h NW 0,9 C 2,7 C 0,0 km/h
01.11.2015 02:00 2,3 C 88 % 1026,8 hPa 0,0 l/m 0,0 km/h NW 0,5 C 2,3 C 0,0 km/h
01.11.2015 03:00 2,2 C 88 % 1027,1 hPa 0,0 l/m 0,0 km/h NW 0,4 C 2,2 C 0,0 km/h
01.11.2015 04:00 1,8 C 88 % 1027,4 hPa 0,0 l/m 0,0 km/h NW 0,0 C 1,8 C 0,0 km/h
01.11.2015 05:00 4,0 C 87 % 1027,8 hPa 0,0 l/m 0,0 km/h NW 2,0 C 4,0 C 0,0 km/h
01.11.2015 06:00 5,1 C 86 % 1028,1 hPa 0,0 l/m 0,0 km/h SO 3,0 C 5,1 C 0,0 km/h
01.11.2015 07:00 5,3 C 86 % 1028,5 hPa 0,0 l/m 0,0 km/h SO 3,2 C 5,3 C 0,0 km/h
01.11.2015 08:00 6,3 C 85 % 1028,6 hPa 0,0 l/m 0,0 km/h SO 4,0 C 6,3 C 0,0 km/h
01.11.2015 09:00 7,5 C 85 % 1028,7 hPa 0,0 l/m 0,0 km/h W-SW 5,1 C 7,5 C 0,0 km/h
01.11.2015 10:00 8,5 C 84 % 1028,6 hPa 0,0 l/m 0,0 km/h W 6,0 C 8,5 C 0,0 km/h
01.11.2015 11:00 9,3 C 88 % 1028,2 hPa 0,0 l/m 0,0 km/h NW 7,4 C 9,3 C 0,0 km/h
01.11.2015 12:00 9,9 C 88 % 1028,0 hPa 0,0 l/m 0,0 km/h W-NW 8,0 C 9,9 C 0,0 km/h
01.11.2015 13:00 9,9 C 88 % 1027,6 hPa 0,0 l/m 0,0 km/h W 8,0 C 9,9 C 0,0 km/h
01.11.2015 14:00 9,4 C 88 % 1027,3 hPa 0,0 l/m 0,0 km/h W-NW 7,5 C 9,4 C 0,0 km/h
01.11.2015 15:00 9,0 C 88 % 1027,2 hPa 0,0 l/m 0,0 km/h W-NW 7,1 C 9,0 C 0,0 km/h
01.11.2015 16:00 8,3 C 88 % 1027,1 hPa 0,0 l/m 0,0 km/h W 6,4 C 8,3 C 0,0 km/h
01.11.2015 17:00 7,8 C 88 % 1027,2 hPa 0,0 l/m 0,0 km/h W 5,9 C 7,8 C 0,0 km/h
01.11.2015 18:00 7,5 C 87 % 1027,4 hPa 0,0 l/m 0,0 km/h S-SO 5,5 C 7,5 C 0,0 km/h
01.11.2015 19:00 7,3 C 87 % 1027,3 hPa 0,0 l/m 0,0 km/h W-SW 5,3 C 7,3 C 0,0 km/h
01.11.2015 20:00 7,2 C 86 % 1027,1 hPa 0,0 l/m 0,0 km/h S-SO 5,0 C 7,2 C 0,0 km/h
01.11.2015 21:00 7,1 C 86 % 1027,1 hPa 0,0 l/m 0,0 km/h W-SW 4,9 C 7,1 C 0,0 km/h
01.11.2015 22:00 6,9 C 86 % 1027,0 hPa 0,0 l/m 0,0 km/h W-SW 4,7 C 6,9 C 0,0 km/h
01.11.2015 23:00 6,8 C 85 % 1026,8 hPa 0,0 l/m 0,0 km/h SO 4,5 C 6,8 C 0,0 km/h
Min-Datum _ 01.11.15 31.10.15 28.10.15 - 26.10.15 - 01.11.15 01.11.15 26.10.15
_ Min-Zeit 04:42 15:42 13:42 - 00:42 - 04:42 04:42 00:42
Minimum _ 1,8 C 57 % 1008,5 hPa - 0,0 km/h - 0,0 C 1,8 C 0,0 km/h
Max-Datum _ 29.10.15 29.10.15 01.11.15 29.10.15 26.10.15 - 29.10.15 29.10.15 26.10.15
_ Max-Zeit 13:42 21:42 09:42 02:42 00:42 - 12:42 13:42 00:42
Maximum _ 21,3 C 88 % 1028,7 hPa 2,5 l/m 0,0 km/h
O-NO
- 13,8 C 21,3 C 0,0 km/h
O-NO
Durchschnitt _ 8,8 C 83 % 1018,8 hPa #9,5 l/m 0,0 km/h W-NW 6,0 C 8,8 C 0,0 km/h
www.sexauwetter.de